Time;durP1;ratioP1;P1;durP2;ratioP2;P2;SDS_P1;SDS_P2;PMS_P1;PMS_P2;Temp;Humidity;BMP_temperature;BMP_pressure;BME280_temperature;BME280_humidity;BME280_pressure;Samples;Min_cycle;Max_cycle;Signal;HPM_P1;HPM_P2
2022/12/17 14:27:55;;;;;;;134.20;45.87;;;2.70;99.90;;;;;;5150386;27;20549;-65
2022/12/17 14:30:24;;;;;;;141.57;47.07;;;3.20;99.90;;;;;;5156543;27;20198;-65
2022/12/17 14:32:51;;;;;;;180.87;46.97;;;3.10;99.90;;;;;;5150623;27;20201;-65
2022/12/17 14:35:26;;;;;;;103.63;35.37;;;3.10;99.90;;;;;;5150502;27;20198;-66
2022/12/17 14:37:53;;;;;;;131.07;40.37;;;3.10;99.90;;;;;;5165690;27;20223;-66
2022/12/17 14:40:20;;;;;;;206.37;46.03;;;3.00;99.90;;;;;;5171486;27;20205;-68
2022/12/17 14:42:47;;;;;;;197.87;45.83;;;3.00;99.90;;;;;;5159760;27;20568;-65
2022/12/17 14:45:27;;;;;;;93.10;37.23;;;3.00;99.90;;;;;;5150760;27;20209;-66
2022/12/17 14:47:55;;;;;;;140.17;39.80;;;3.10;99.90;;;;;;5158297;27;20193;-63
2022/12/17 14:50:28;;;;;;;143.17;38.83;;;3.00;99.90;;;;;;5144147;27;20283;-65
2022/12/17 14:52:56;;;;;;;94.27;31.13;;;3.00;99.90;;;;;;5147762;27;20221;-66
2022/12/17 14:55:34;;;;;;;79.80;26.20;;;3.00;99.90;;;;;;5165511;27;20209;-64
2022/12/17 14:58:14;;;;;;;151.43;31.83;;;3.00;99.90;;;;;;5162806;27;20272;-66
2022/12/17 15:00:45;;;;;;;65.67;25.40;;;3.00;99.90;;;;;;5141108;27;20202;-65
2022/12/17 15:03:18;;;;;;;46.30;19.63;;;2.90;99.90;;;;;;5149093;27;20332;-65
2022/12/17 15:05:48;;;;;;;103.70;36.37;;;2.90;99.90;;;;;;5148593;27;20228;-64
2022/12/17 15:08:14;;;;;;;59.93;27.47;;;3.00;99.90;;;;;;5149066;27;20202;-64
2022/12/17 15:10:41;;;;;;;39.33;20.97;;;3.10;99.90;;;;;;5138323;27;20568;-64
2022/12/17 15:13:08;;;;;;;55.33;25.30;;;3.00;99.90;;;;;;5128941;27;20566;-65
2022/12/17 15:15:35;;;;;;;50.17;21.87;;;3.00;99.90;;;;;;5128107;28;20199;-66
2022/12/17 15:18:03;;;;;;;75.63;30.43;;;3.10;99.90;;;;;;5129163;28;20204;-67
2022/12/17 15:20:30;;;;;;;74.30;28.97;;;3.00;99.90;;;;;;5129028;28;20233;-65
2022/12/17 15:22:57;;;;;;;74.17;31.20;;;3.00;99.90;;;;;;5129257;27;20663;-66
2022/12/17 15:25:23;;;;;;;79.67;32.77;;;3.00;99.90;;;;;;5150971;27;20206;-67
2022/12/17 15:27:50;;;;;;;65.37;27.97;;;3.10;99.90;;;;;;5153216;27;20210;-67
2022/12/17 15:30:18;;;;;;;110.93;34.83;;;3.00;99.90;;;;;;5156475;27;20201;-66
2022/12/17 15:32:45;;;;;;;129.53;48.63;;;3.00;99.90;;;;;;5156640;27;20202;-65
2022/12/17 15:35:14;;;;;;;60.30;25.10;;;2.90;99.90;;;;;;5150991;27;20191;-66
2022/12/17 15:37:41;;;;;;;60.60;26.10;;;2.90;99.90;;;;;;5125357;27;20568;-66
2022/12/17 15:40:10;;;;;;;76.90;34.03;;;2.80;99.90;;;;;;5114871;28;20200;-64
2022/12/17 15:45:27;;;;;;;48.77;23.20;;;2.70;99.90;;;;;;5098373;27;20236;-66
2022/12/17 15:47:53;;;;;;;39.20;19.47;;;2.70;99.90;;;;;;5113397;28;20210;-66
2022/12/17 15:50:22;;;;;;;36.63;19.03;;;2.70;99.90;;;;;;5147001;27;20202;-64
2022/12/17 15:52:49;;;;;;;44.07;20.10;;;2.70;99.90;;;;;;5148067;27;20191;-65
2022/12/17 15:55:16;;;;;;;39.77;21.47;;;2.70;99.90;;;;;;5122195;27;20560;-65
2022/12/17 15:57:43;;;;;;;35.33;20.47;;;2.60;99.90;;;;;;5117025;27;20230;-65
2022/12/17 16:00:11;;;;;;;26.73;15.80;;;2.50;99.90;;;;;;5113829;28;20208;-67
2022/12/17 16:02:38;;;;;;;64.67;21.07;;;2.50;99.90;;;;;;5127699;27;20294;-66
2022/12/17 16:05:06;;;;;;;72.87;27.73;;;2.50;99.90;;;;;;5126494;27;20695;-65
2022/12/17 16:07:35;;;;;;;42.87;21.23;;;2.50;99.90;;;;;;5114346;28;20227;-67
2022/12/17 16:10:02;;;;;;;29.10;17.27;;;2.60;99.90;;;;;;5114466;28;20269;-66
2022/12/17 16:12:29;;;;;;;44.77;24.17;;;2.60;99.90;;;;;;5114054;28;20207;-65
2022/12/17 16:14:56;;;;;;;43.43;23.63;;;2.60;99.90;;;;;;5122963;27;20190;-65
2022/12/17 16:17:22;;;;;;;22.47;14.43;;;2.60;99.90;;;;;;5129244;27;20202;-67
2022/12/17 16:19:49;;;;;;;60.00;30.17;;;2.60;99.90;;;;;;5125894;27;20222;-66
2022/12/17 16:22:16;;;;;;;22.53;14.00;;;2.60;99.90;;;;;;5117381;27;21366;-68
2022/12/17 16:24:44;;;;;;;25.30;15.33;;;2.60;99.90;;;;;;5123145;27;20190;-64
2022/12/17 16:27:11;;;;;;;23.23;14.60;;;2.60;99.90;;;;;;5131520;27;20249;-65
2022/12/17 16:29:38;;;;;;;17.90;12.87;;;2.60;99.90;;;;;;5126133;27;20560;-64
2022/12/17 16:32:05;;;;;;;18.67;13.07;;;2.60;99.90;;;;;;5122767;27;20205;-64
2022/12/17 16:34:32;;;;;;;18.87;12.10;;;2.60;99.90;;;;;;5134676;27;20203;-66
2022/12/17 16:37:00;;;;;;;26.17;17.03;;;2.50;99.90;;;;;;5130361;27;20290;-65
2022/12/17 16:39:27;;;;;;;31.00;20.77;;;2.50;99.90;;;;;;5110236;28;20211;-65
2022/12/17 16:41:55;;;;;;;20.37;12.40;;;2.50;99.90;;;;;;5113676;28;20230;-66
2022/12/17 16:44:22;;;;;;;15.70;10.43;;;2.50;99.90;;;;;;5117466;27;20251;-65
2022/12/17 16:46:50;;;;;;;16.77;10.57;;;2.50;99.90;;;;;;5134194;27;20218;-65
2022/12/17 16:49:20;;;;;;;16.20;10.73;;;2.50;99.90;;;;;;5133725;27;20206;-66
2022/12/17 16:51:48;;;;;;;15.57;11.23;;;2.50;99.90;;;;;;5121532;27;20223;-65
2022/12/17 16:54:17;;;;;;;13.70;10.53;;;2.50;99.90;;;;;;5120748;27;20580;-66
2022/12/17 16:56:45;;;;;;;17.60;12.40;;;2.50;99.90;;;;;;5125688;27;20195;-65
2022/12/17 16:59:15;;;;;;;22.87;14.70;;;2.50;99.90;;;;;;5122545;27;20304;-64
2022/12/17 17:01:44;;;;;;;22.87;14.50;;;2.50;99.90;;;;;;5139655;27;20289;-65
2022/12/17 17:04:12;;;;;;;20.23;13.87;;;2.50;99.90;;;;;;5133882;27;20302;-64
2022/12/17 17:06:40;;;;;;;19.67;11.70;;;2.50;99.90;;;;;;5134043;27;20219;-66
2022/12/17 17:09:08;;;;;;;17.00;10.40;;;2.50;99.90;;;;;;5132819;27;20218;-65
2022/12/17 17:11:35;;;;;;;14.10;9.87;;;2.50;99.90;;;;;;5113075;28;20203;-65
2022/12/17 17:14:04;;;;;;;12.77;9.00;;;2.50;99.90;;;;;;5123457;27;20203;-65
2022/12/17 17:16:33;;;;;;;27.07;16.20;;;2.50;99.90;;;;;;5113255;28;20203;-65
2022/12/17 17:19:01;;;;;;;21.43;14.43;;;2.50;99.90;;;;;;5113212;28;20207;-65
2022/12/17 17:21:30;;;;;;;11.03;8.00;;;2.40;99.90;;;;;;5119199;27;20205;-66
2022/12/17 17:24:00;;;;;;;9.50;6.80;;;2.40;99.90;;;;;;5133696;27;20567;-65
2022/12/17 17:26:27;;;;;;;8.70;6.90;;;2.30;99.90;;;;;;5124857;27;20331;-64
2022/12/17 17:28:54;;;;;;;9.63;7.13;;;2.30;99.90;;;;;;5116780;27;20199;-63
2022/12/17 17:31:22;;;;;;;9.00;6.50;;;2.20;99.90;;;;;;5112243;28;20676;-65
2022/12/17 17:33:51;;;;;;;8.60;6.47;;;2.20;99.90;;;;;;5124590;27;20652;-64
2022/12/17 17:36:20;;;;;;;7.80;5.77;;;2.20;99.90;;;;;;5121077;27;20218;-66
2022/12/17 17:38:48;;;;;;;5.73;4.43;;;2.20;99.90;;;;;;5127625;27;20208;-65
2022/12/17 17:41:18;;;;;;;6.77;4.70;;;2.20;99.90;;;;;;5121125;27;20202;-65
2022/12/17 17:43:45;;;;;;;7.10;4.53;;;2.10;99.90;;;;;;5128134;27;20206;-66
2022/12/17 17:46:14;;;;;;;5.97;4.37;;;2.10;99.90;;;;;;5128781;27;20203;-66
2022/12/17 17:48:41;;;;;;;6.50;5.10;;;2.10;99.90;;;;;;5114081;27;20207;-65
2022/12/17 17:51:13;;;;;;;6.83;5.40;;;2.10;99.90;;;;;;5111036;27;20206;-65
2022/12/17 17:53:40;;;;;;;4.93;3.83;;;2.10;99.90;;;;;;5112423;28;20234;-65
2022/12/17 17:56:13;;;;;;;5.60;4.27;;;2.00;99.90;;;;;;5119654;27;20580;-65
2022/12/17 17:58:42;;;;;;;4.27;3.87;;;2.00;99.90;;;;;;5109812;28;20741;-65
2022/12/17 21:20:43;;;;;;;12.27;8.97;;;0.70;99.90;;;;;;5643127;22;20651;-65
2022/12/17 21:23:10;;;;;;;13.27;9.50;;;0.60;99.90;;;;;;5096191;28;20196;-65
2022/12/17 21:25:39;;;;;;;12.97;9.43;;;0.70;99.90;;;;;;5100623;28;20670;-66
2022/12/17 21:28:06;;;;;;;11.80;8.90;;;0.70;99.90;;;;;;5109216;28;20199;-65
2022/12/17 21:30:36;;;;;;;13.23;9.67;;;0.80;99.90;;;;;;5104540;28;20678;-67
2022/12/17 21:33:02;;;;;;;17.00;11.27;;;0.80;99.90;;;;;;5099660;28;20252;-68
2022/12/17 21:35:29;;;;;;;13.63;9.90;;;0.90;99.90;;;;;;5109557;28;20203;-67
2022/12/17 21:37:57;;;;;;;14.00;10.40;;;0.90;99.90;;;;;;5107336;28;20199;-67
2022/12/17 21:40:24;;;;;;;13.40;9.90;;;1.00;99.90;;;;;;5109266;28;20555;-66
2022/12/17 21:43:03;;;;;;;13.50;10.17;;;1.00;99.90;;;;;;5109660;28;20227;-66
2022/12/17 21:45:36;;;;;;;16.80;11.30;;;1.00;99.90;;;;;;5109585;28;20615;-66
2022/12/17 21:48:03;;;;;;;17.27;12.53;;;1.10;99.90;;;;;;5109253;28;20203;-65
2022/12/17 21:50:30;;;;;;;17.27;12.37;;;1.10;99.90;;;;;;5108929;28;20191;-65
2022/12/17 21:52:58;;;;;;;17.10;12.03;;;1.10;99.90;;;;;;5096596;28;20246;-67
2022/12/17 21:55:25;;;;;;;16.93;12.10;;;1.10;99.90;;;;;;5087873;28;20200;-66
2022/12/17 21:57:53;;;;;;;18.40;12.97;;;1.10;99.90;;;;;;5086005;28;20212;-67
2022/12/17 22:00:19;;;;;;;19.40;14.00;;;1.10;99.90;;;;;;5102421;28;20220;-66
2022/12/17 22:02:48;;;;;;;19.53;13.67;;;1.10;99.90;;;;;;5087901;28;20208;-66
2022/12/17 22:05:15;;;;;;;21.73;14.37;;;1.10;99.90;;;;;;5087509;28;20208;-65
2022/12/17 22:07:41;;;;;;;19.73;13.83;;;1.10;99.90;;;;;;5087741;28;20642;-68
2022/12/17 22:10:10;;;;;;;19.07;13.83;;;1.00;99.90;;;;;;5087468;28;20223;-66
2022/12/17 22:15:22;;;;;;;21.50;14.60;;;0.90;99.90;;;;;;5090520;28;20282;-65
2022/12/17 22:17:49;;;;;;;20.87;14.60;;;0.90;99.90;;;;;;5107584;28;20203;-66
2022/12/17 22:20:16;;;;;;;18.73;13.57;;;0.90;99.90;;;;;;5107362;28;20239;-66
2022/12/17 22:22:43;;;;;;;21.23;13.60;;;1.00;99.90;;;;;;5100156;28;20690;-65
2022/12/17 22:25:12;;;;;;;20.57;14.17;;;0.90;99.90;;;;;;5102929;28;20268;-66
2022/12/17 22:27:39;;;;;;;18.50;12.90;;;0.90;99.90;;;;;;5106875;28;20562;-66
